FBD777 URSS-UUEE
Flight info
| Callsign | FBD777 |
|---|---|
| Flight time | 2h 11m |
| Altitude | 34000 |
| Route | ADNET1D ADNET W79 AMEPU A100 KL L91 KANON T748 PEPOR T611 TUKMO N50 OLOPI OLOPI3E |
| Aircraft | B721/M-SDFGHRWY/C |
Departure
| Time | 2026-05-07 10:19 |
|---|---|
| Airport | Sochi International Airport (URSS) |
Arrival
| Time | 2026-05-07 12:31 |
|---|---|
| Airport | Sheremetyevo International Airport (UUEE) |
| Time | Latitude | Longitude | Altitude | Speed | Heading |
|---|---|---|---|---|---|
| 2026-05-07 09:53 | 43.44459 | 39.93576 | 64 ft | 0 kts | 4° |
| 2026-05-07 10:08 | 43.44452 | 39.93575 | 56 ft | 2 kts | 4° |
| 2026-05-07 10:08 | 43.44435 | 39.93573 | 63 ft | 2 kts | 4° |
| 2026-05-07 10:08 | 43.44419 | 39.93571 | 58 ft | 2 kts | 10° |
| 2026-05-07 10:08 | 43.44405 | 39.93558 | 55 ft | 2 kts | 45° |
| 2026-05-07 10:09 | 43.44402 | 39.93552 | 63 ft | 0 kts | 54° |
| 2026-05-07 10:14 | 43.44404 | 39.93556 | 55 ft | 1 kts | 68° |
| 2026-05-07 10:14 | 43.44416 | 39.93591 | 67 ft | 7 kts | 62° |
| 2026-05-07 10:15 | 43.44443 | 39.93671 | 62 ft | 12 kts | 66° |
| 2026-05-07 10:15 | 43.44485 | 39.93795 | 61 ft | 16 kts | 65° |
| 2026-05-07 10:15 | 43.44536 | 39.93945 | 70 ft | 19 kts | 65° |
| 2026-05-07 10:15 | 43.44599 | 39.94130 | 70 ft | 25 kts | 65° |
| 2026-05-07 10:16 | 43.44682 | 39.94371 | 75 ft | 31 kts | 65° |
| 2026-05-07 10:16 | 43.44782 | 39.94665 | 71 ft | 37 kts | 65° |
| 2026-05-07 10:16 | 43.44875 | 39.94937 | 82 ft | 23 kts | 65° |
| 2026-05-07 10:16 | 43.44951 | 39.95150 | 89 ft | 27 kts | 63° |
| 2026-05-07 10:17 | 43.45023 | 39.95364 | 96 ft | 12 kts | 65° |
| 2026-05-07 10:17 | 43.45055 | 39.95457 | 97 ft | 7 kts | 70° |
| 2026-05-07 10:17 | 43.45060 | 39.95487 | 97 ft | 2 kts | 92° |
| 2026-05-07 10:17 | 43.45056 | 39.95502 | 96 ft | 5 kts | 123° |
| 2026-05-07 10:18 | 43.45012 | 39.95542 | 94 ft | 12 kts | 156° |
| 2026-05-07 10:18 | 43.44959 | 39.95542 | 93 ft | 8 kts | 238° |
| 2026-05-07 10:18 | 43.44956 | 39.95534 | 93 ft | 1 kts | 245° |
| 2026-05-07 10:18 | 43.44952 | 39.95522 | 96 ft | 11 kts | 245° |
| 2026-05-07 10:19 | 43.44807 | 39.95099 | 85 ft | 88 kts | 244° |
| 2026-05-07 10:19 | 43.44456 | 39.94071 | 109 ft | 147 kts | 245° |
| 2026-05-07 10:19 | 43.43953 | 39.92657 | 552 ft | 173 kts | 243° |
| 2026-05-07 10:19 | 43.43463 | 39.91180 | 1327 ft | 179 kts | 253° |
| 2026-05-07 10:20 | 43.43220 | 39.89440 | 2085 ft | 186 kts | 262° |
| 2026-05-07 10:20 | 43.43022 | 39.87623 | 2653 ft | 207 kts | 260° |
| 2026-05-07 10:20 | 43.42715 | 39.85632 | 3232 ft | 214 kts | 256° |
| 2026-05-07 10:20 | 43.42346 | 39.83540 | 3798 ft | 242 kts | 256° |
| 2026-05-07 10:21 | 43.41926 | 39.81105 | 4392 ft | 265 kts | 257° |
| 2026-05-07 10:21 | 43.41513 | 39.78658 | 4976 ft | 267 kts | 257° |
| 2026-05-07 10:21 | 43.41089 | 39.76162 | 5510 ft | 269 kts | 257° |
| 2026-05-07 10:21 | 43.40659 | 39.73642 | 6070 ft | 271 kts | 257° |
| 2026-05-07 10:22 | 43.40224 | 39.71097 | 6685 ft | 275 kts | 258° |
| 2026-05-07 10:22 | 43.39810 | 39.68520 | 7308 ft | 277 kts | 262° |
| 2026-05-07 10:22 | 43.39878 | 39.65884 | 7977 ft | 278 kts | 283° |
| 2026-05-07 10:22 | 43.40565 | 39.63411 | 8700 ft | 278 kts | 302° |
| 2026-05-07 10:23 | 43.41806 | 39.61366 | 9497 ft | 280 kts | 321° |
| 2026-05-07 10:23 | 43.43449 | 39.59941 | 10350 ft | 281 kts | 334° |
| 2026-05-07 10:23 | 43.45267 | 39.58896 | 11199 ft | 286 kts | 341° |
| 2026-05-07 10:23 | 43.47158 | 39.57983 | 12214 ft | 292 kts | 341° |
| 2026-05-07 10:24 | 43.49108 | 39.56945 | 12947 ft | 308 kts | 339° |
| 2026-05-07 10:24 | 43.51129 | 39.55792 | 13698 ft | 322 kts | 339° |
| 2026-05-07 10:24 | 43.53255 | 39.54612 | 14421 ft | 335 kts | 339° |
| 2026-05-07 10:24 | 43.55463 | 39.53420 | 15118 ft | 346 kts | 339° |
| 2026-05-07 10:25 | 43.57701 | 39.52197 | 16023 ft | 347 kts | 339° |
| 2026-05-07 10:25 | 43.59965 | 39.50949 | 16783 ft | 354 kts | 340° |
| 2026-05-07 10:25 | 43.62337 | 39.50061 | 17554 ft | 356 kts | 354° |
| 2026-05-07 10:25 | 43.64789 | 39.50062 | 18338 ft | 359 kts | 8° |
| 2026-05-07 10:26 | 43.67234 | 39.50817 | 19037 ft | 362 kts | 16° |
| 2026-05-07 10:26 | 43.69630 | 39.51951 | 19708 ft | 366 kts | 21° |
| 2026-05-07 10:26 | 43.72015 | 39.53234 | 20363 ft | 370 kts | 21° |
| 2026-05-07 10:26 | 43.74460 | 39.54396 | 21018 ft | 373 kts | 18° |
| 2026-05-07 10:27 | 43.76945 | 39.55480 | 21662 ft | 377 kts | 18° |
| 2026-05-07 10:27 | 43.79440 | 39.56636 | 22289 ft | 381 kts | 20° |
| 2026-05-07 10:27 | 43.81950 | 39.57859 | 22912 ft | 384 kts | 20° |
| 2026-05-07 10:27 | 43.84489 | 39.59071 | 23522 ft | 388 kts | 19° |
| 2026-05-07 10:28 | 43.87059 | 39.60263 | 24069 ft | 391 kts | 19° |
| 2026-05-07 10:28 | 43.89646 | 39.61474 | 24557 ft | 394 kts | 20° |
| 2026-05-07 10:28 | 43.92244 | 39.62710 | 25044 ft | 397 kts | 20° |
| 2026-05-07 10:28 | 43.94867 | 39.63957 | 25544 ft | 399 kts | 20° |
| 2026-05-07 10:29 | 43.97515 | 39.65207 | 26011 ft | 403 kts | 20° |
| 2026-05-07 10:29 | 44.00178 | 39.66464 | 26482 ft | 405 kts | 20° |
| 2026-05-07 10:29 | 44.02853 | 39.67735 | 26966 ft | 407 kts | 20° |
| 2026-05-07 10:30 | 44.08251 | 39.70300 | 27892 ft | 413 kts | 21° |
| 2026-05-07 10:30 | 44.10943 | 39.71578 | 28316 ft | 415 kts | 21° |
| 2026-05-07 10:30 | 44.13680 | 39.72883 | 28736 ft | 418 kts | 21° |
| 2026-05-07 10:30 | 44.16438 | 39.74198 | 29150 ft | 420 kts | 21° |
| 2026-05-07 10:31 | 44.19249 | 39.75539 | 29584 ft | 423 kts | 21° |
| 2026-05-07 10:31 | 44.21999 | 39.76853 | 29972 ft | 425 kts | 21° |
| 2026-05-07 10:31 | 44.24807 | 39.78194 | 30338 ft | 427 kts | 21° |
| 2026-05-07 10:31 | 44.27621 | 39.79542 | 30644 ft | 430 kts | 21° |
| 2026-05-07 10:32 | 44.30466 | 39.80904 | 30963 ft | 432 kts | 21° |
| 2026-05-07 10:32 | 44.33317 | 39.82270 | 31262 ft | 435 kts | 21° |
| 2026-05-07 10:32 | 44.36213 | 39.83535 | 31535 ft | 439 kts | 15° |
| 2026-05-07 10:32 | 44.39262 | 39.84046 | 31819 ft | 444 kts | 6° |
| 2026-05-07 10:33 | 44.42366 | 39.84134 | 32105 ft | 448 kts | 1° |
| 2026-05-07 10:33 | 44.45486 | 39.83956 | 32364 ft | 450 kts | 360° |
| 2026-05-07 10:33 | 44.48626 | 39.83840 | 32635 ft | 452 kts | 2° |
| 2026-05-07 10:33 | 44.51770 | 39.83909 | 32904 ft | 453 kts | 4° |
| 2026-05-07 10:34 | 44.53866 | 39.83963 | 33070 ft | 455 kts | 3° |
| 2026-05-07 10:34 | 44.57043 | 39.83943 | 33327 ft | 457 kts | 1° |
| 2026-05-07 10:34 | 44.60237 | 39.83859 | 33576 ft | 459 kts | 1° |
| 2026-05-07 10:34 | 44.63439 | 39.83834 | 33812 ft | 461 kts | 2° |
| 2026-05-07 10:35 | 44.66649 | 39.83859 | 34051 ft | 463 kts | 2° |
| 2026-05-07 10:35 | 44.69880 | 39.83855 | 34268 ft | 465 kts | 2° |
| 2026-05-07 10:35 | 44.73126 | 39.83814 | 34450 ft | 467 kts | 1° |
| 2026-05-07 10:35 | 44.76375 | 39.83785 | 34617 ft | 469 kts | 2° |
| 2026-05-07 10:36 | 44.82945 | 39.83776 | 34462 ft | 472 kts | 2° |
| 2026-05-07 10:36 | 44.86214 | 39.83750 | 34255 ft | 468 kts | 2° |
| 2026-05-07 10:36 | 44.89469 | 39.83725 | 34071 ft | 463 kts | 2° |
| 2026-05-07 10:37 | 44.95911 | 39.83705 | 34183 ft | 466 kts | 2° |
| 2026-05-07 10:37 | 45.02470 | 39.83664 | 34193 ft | 476 kts | 2° |
| 2026-05-07 10:38 | 45.09074 | 39.83631 | 34191 ft | 473 kts | 2° |
| 2026-05-07 10:38 | 45.15620 | 39.83599 | 34185 ft | 473 kts | 2° |
| 2026-05-07 10:39 | 45.22199 | 39.83563 | 34182 ft | 473 kts | 2° |
| 2026-05-07 10:39 | 45.28793 | 39.83529 | 34183 ft | 474 kts | 1° |
| 2026-05-07 10:40 | 45.35374 | 39.83495 | 34179 ft | 473 kts | 1° |
| 2026-05-07 10:40 | 45.41972 | 39.83460 | 34174 ft | 474 kts | 1° |
| 2026-05-07 10:41 | 45.48570 | 39.83426 | 34175 ft | 474 kts | 1° |
| 2026-05-07 10:41 | 45.55161 | 39.83391 | 34171 ft | 474 kts | 1° |
| 2026-05-07 10:42 | 45.61755 | 39.83359 | 34170 ft | 474 kts | 1° |
| 2026-05-07 10:42 | 45.68353 | 39.83321 | 34167 ft | 474 kts | 1° |
| 2026-05-07 10:43 | 45.74944 | 39.83287 | 34164 ft | 474 kts | 1° |
| 2026-05-07 10:43 | 45.81492 | 39.83252 | 34163 ft | 474 kts | 1° |
| 2026-05-07 10:44 | 45.88124 | 39.83186 | 34165 ft | 474 kts | 2° |
| 2026-05-07 10:44 | 45.94659 | 39.83208 | 34159 ft | 473 kts | 1° |
| 2026-05-07 10:45 | 46.01237 | 39.83129 | 34152 ft | 472 kts | 2° |
| 2026-05-07 10:45 | 46.07805 | 39.83124 | 34154 ft | 472 kts | 2° |
| 2026-05-07 10:46 | 46.14367 | 39.83069 | 34148 ft | 471 kts | 2° |
| 2026-05-07 10:46 | 46.20913 | 39.83044 | 34141 ft | 470 kts | 2° |
| 2026-05-07 10:47 | 46.27445 | 39.83007 | 34143 ft | 469 kts | 2° |
| 2026-05-07 10:47 | 46.33971 | 39.82971 | 34029 ft | 466 kts | 2° |
| 2026-05-07 10:48 | 46.37217 | 39.82954 | 34145 ft | 468 kts | 2° |
| 2026-05-07 10:48 | 46.40481 | 39.82937 | 34145 ft | 469 kts | 2° |
| 2026-05-07 10:48 | 46.47000 | 39.82895 | 34134 ft | 469 kts | 1° |
| 2026-05-07 10:49 | 46.53528 | 39.82872 | 34132 ft | 468 kts | 2° |
| 2026-05-07 10:49 | 46.60052 | 39.82826 | 34126 ft | 468 kts | 1° |
| 2026-05-07 10:50 | 46.66565 | 39.82797 | 34123 ft | 469 kts | 1° |
| 2026-05-07 10:50 | 46.73085 | 39.82767 | 34123 ft | 469 kts | 2° |
| 2026-05-07 10:51 | 46.79577 | 39.82717 | 34120 ft | 469 kts | 1° |
| 2026-05-07 10:51 | 46.86099 | 39.82690 | 34120 ft | 468 kts | 1° |
| 2026-05-07 10:52 | 46.92542 | 39.82647 | 34120 ft | 458 kts | 3° |
| 2026-05-07 10:52 | 46.98922 | 39.82620 | 34122 ft | 459 kts | 3° |
| 2026-05-07 10:53 | 47.05309 | 39.82579 | 34118 ft | 459 kts | 3° |
| 2026-05-07 10:53 | 47.11687 | 39.82547 | 34116 ft | 458 kts | 3° |
| 2026-05-07 10:54 | 47.18048 | 39.82522 | 34108 ft | 457 kts | 4° |
| 2026-05-07 10:54 | 47.24247 | 39.84089 | 34112 ft | 450 kts | 18° |
| 2026-05-07 10:55 | 47.30245 | 39.86731 | 34103 ft | 451 kts | 18° |
| 2026-05-07 10:55 | 47.36327 | 39.88996 | 34102 ft | 451 kts | 17° |
| 2026-05-07 10:56 | 47.42366 | 39.91481 | 34106 ft | 450 kts | 18° |
| 2026-05-07 10:56 | 47.48428 | 39.93854 | 34107 ft | 450 kts | 17° |
| 2026-05-07 10:57 | 47.54475 | 39.96291 | 34102 ft | 450 kts | 18° |
| 2026-05-07 10:57 | 47.60481 | 39.98687 | 34106 ft | 450 kts | 17° |
| 2026-05-07 10:58 | 47.66523 | 40.01117 | 34095 ft | 450 kts | 18° |
| 2026-05-07 10:58 | 47.72563 | 40.03547 | 34079 ft | 449 kts | 18° |
| 2026-05-07 10:59 | 47.78595 | 40.05979 | 34066 ft | 450 kts | 18° |
| 2026-05-07 10:59 | 47.84641 | 40.08424 | 34060 ft | 450 kts | 17° |
| 2026-05-07 11:00 | 47.90732 | 40.10666 | 34046 ft | 452 kts | 13° |
| 2026-05-07 11:00 | 47.96989 | 40.11753 | 34039 ft | 454 kts | 9° |
| 2026-05-07 11:01 | 48.03219 | 40.13178 | 34038 ft | 453 kts | 12° |
| 2026-05-07 11:01 | 48.09465 | 40.14505 | 34038 ft | 454 kts | 9° |
| 2026-05-07 11:02 | 48.15710 | 40.15847 | 34026 ft | 453 kts | 11° |
| 2026-05-07 11:02 | 48.21960 | 40.17222 | 34020 ft | 454 kts | 10° |
| 2026-05-07 11:03 | 48.28215 | 40.18562 | 34020 ft | 454 kts | 11° |
| 2026-05-07 11:03 | 48.34474 | 40.19945 | 34036 ft | 455 kts | 10° |
| 2026-05-07 11:04 | 48.40744 | 40.21300 | 34031 ft | 456 kts | 11° |
| 2026-05-07 11:04 | 48.47022 | 40.22686 | 34027 ft | 457 kts | 10° |
| 2026-05-07 11:05 | 48.53323 | 40.24063 | 34019 ft | 457 kts | 10° |
| 2026-05-07 11:05 | 48.59585 | 40.25444 | 34015 ft | 458 kts | 10° |
| 2026-05-07 11:06 | 48.65892 | 40.26835 | 34010 ft | 459 kts | 10° |
| 2026-05-07 11:06 | 48.72210 | 40.28234 | 34005 ft | 460 kts | 10° |
| 2026-05-07 11:07 | 48.78545 | 40.29639 | 34009 ft | 460 kts | 10° |
| 2026-05-07 11:07 | 48.84873 | 40.31047 | 34009 ft | 460 kts | 10° |
| 2026-05-07 11:08 | 48.91215 | 40.32461 | 34008 ft | 461 kts | 10° |
| 2026-05-07 11:08 | 48.97563 | 40.33879 | 34006 ft | 461 kts | 10° |
| 2026-05-07 11:09 | 49.03917 | 40.35300 | 34005 ft | 461 kts | 10° |
| 2026-05-07 11:09 | 49.10288 | 40.36726 | 34003 ft | 463 kts | 10° |
| 2026-05-07 11:10 | 49.16654 | 40.38179 | 34004 ft | 463 kts | 9° |
| 2026-05-07 11:10 | 49.23035 | 40.39604 | 33998 ft | 464 kts | 10° |
| 2026-05-07 11:11 | 49.29413 | 40.41060 | 34000 ft | 464 kts | 10° |
| 2026-05-07 11:11 | 49.35805 | 40.42503 | 33997 ft | 464 kts | 10° |
| 2026-05-07 11:12 | 49.42201 | 40.43965 | 33990 ft | 464 kts | 10° |
| 2026-05-07 11:12 | 49.48605 | 40.45422 | 33990 ft | 466 kts | 9° |
| 2026-05-07 11:13 | 49.55006 | 40.46945 | 33993 ft | 466 kts | 11° |
| 2026-05-07 11:13 | 49.61290 | 40.49092 | 33991 ft | 466 kts | 14° |
| 2026-05-07 11:14 | 49.67653 | 40.51073 | 33981 ft | 467 kts | 12° |
| 2026-05-07 11:14 | 49.74000 | 40.53126 | 33983 ft | 467 kts | 13° |
| 2026-05-07 11:15 | 49.80364 | 40.55183 | 33981 ft | 467 kts | 12° |
| 2026-05-07 11:15 | 49.86729 | 40.57225 | 33985 ft | 467 kts | 13° |
| 2026-05-07 11:16 | 49.93091 | 40.59299 | 33982 ft | 468 kts | 13° |
| 2026-05-07 11:16 | 49.99461 | 40.61355 | 33975 ft | 467 kts | 13° |
| 2026-05-07 11:17 | 50.05834 | 40.63439 | 33971 ft | 468 kts | 13° |
| 2026-05-07 11:17 | 50.12218 | 40.65516 | 33973 ft | 468 kts | 13° |
| 2026-05-07 11:18 | 50.18593 | 40.67609 | 33973 ft | 468 kts | 13° |
| 2026-05-07 11:18 | 50.24970 | 40.69697 | 33972 ft | 468 kts | 13° |
| 2026-05-07 11:19 | 50.31302 | 40.71784 | 33970 ft | 468 kts | 13° |
| 2026-05-07 11:19 | 50.37668 | 40.73884 | 33966 ft | 468 kts | 13° |
| 2026-05-07 11:20 | 50.44048 | 40.75996 | 33968 ft | 468 kts | 13° |
| 2026-05-07 11:20 | 50.50429 | 40.78113 | 33970 ft | 468 kts | 13° |
| 2026-05-07 11:21 | 50.56810 | 40.80236 | 33968 ft | 469 kts | 13° |
| 2026-05-07 11:21 | 50.63187 | 40.82364 | 33969 ft | 469 kts | 13° |
| 2026-05-07 11:22 | 50.69565 | 40.84499 | 33966 ft | 469 kts | 13° |
| 2026-05-07 11:22 | 50.75943 | 40.86637 | 33971 ft | 469 kts | 13° |
| 2026-05-07 11:23 | 50.82330 | 40.88790 | 33966 ft | 469 kts | 13° |
| 2026-05-07 11:23 | 50.88815 | 40.89541 | 33974 ft | 471 kts | 356° |
| 2026-05-07 11:24 | 50.94211 | 40.88302 | 33977 ft | 472 kts | 349° |
| 2026-05-07 11:24 | 51.00671 | 40.86442 | 33967 ft | 471 kts | 353° |
| 2026-05-07 11:25 | 51.08219 | 40.84701 | 33968 ft | 471 kts | 351° |
| 2026-05-07 11:25 | 51.13631 | 40.83225 | 33961 ft | 471 kts | 352° |
| 2026-05-07 11:26 | 51.20108 | 40.81673 | 33968 ft | 471 kts | 352° |
| 2026-05-07 11:26 | 51.26576 | 40.79973 | 33963 ft | 471 kts | 352° |
| 2026-05-07 11:27 | 51.33047 | 40.78359 | 33966 ft | 471 kts | 352° |
| 2026-05-07 11:27 | 51.39518 | 40.76688 | 33963 ft | 471 kts | 352° |
| 2026-05-07 11:28 | 51.45937 | 40.75052 | 33955 ft | 471 kts | 352° |
| 2026-05-07 11:28 | 51.52401 | 40.73389 | 33956 ft | 470 kts | 351° |
| 2026-05-07 11:29 | 51.58862 | 40.71723 | 33953 ft | 470 kts | 352° |
| 2026-05-07 11:29 | 51.65329 | 40.70055 | 33934 ft | 470 kts | 351° |
| 2026-05-07 11:30 | 51.71816 | 40.68371 | 33952 ft | 473 kts | 351° |
| 2026-05-07 11:30 | 51.78311 | 40.66685 | 33955 ft | 472 kts | 351° |
| 2026-05-07 11:31 | 51.84805 | 40.64993 | 33954 ft | 473 kts | 350° |
| 2026-05-07 11:31 | 51.91291 | 40.63295 | 33955 ft | 472 kts | 350° |
| 2026-05-07 11:32 | 52.01044 | 40.60739 | 33958 ft | 473 kts | 350° |
| 2026-05-07 11:33 | 52.07534 | 40.59028 | 33959 ft | 473 kts | 350° |
| 2026-05-07 11:33 | 52.13993 | 40.57324 | 33955 ft | 473 kts | 350° |
| 2026-05-07 11:34 | 52.20526 | 40.55592 | 33958 ft | 473 kts | 350° |
| 2026-05-07 11:34 | 52.26969 | 40.53883 | 33952 ft | 472 kts | 350° |
| 2026-05-07 11:35 | 52.33463 | 40.52150 | 33958 ft | 472 kts | 350° |
| 2026-05-07 11:35 | 52.39953 | 40.50415 | 33955 ft | 472 kts | 349° |
| 2026-05-07 11:36 | 52.46433 | 40.48680 | 33958 ft | 472 kts | 349° |
| 2026-05-07 11:36 | 52.52648 | 40.45464 | 33960 ft | 470 kts | 334° |
| 2026-05-07 11:37 | 52.58389 | 40.40319 | 33967 ft | 469 kts | 329° |
| 2026-05-07 11:37 | 52.64161 | 40.35294 | 33961 ft | 470 kts | 332° |
| 2026-05-07 11:38 | 52.69935 | 40.30257 | 33959 ft | 469 kts | 330° |
| 2026-05-07 11:38 | 52.75590 | 40.25239 | 33957 ft | 461 kts | 331° |
| 2026-05-07 11:39 | 52.81255 | 40.20284 | 33956 ft | 461 kts | 330° |
| 2026-05-07 11:39 | 52.86865 | 40.15284 | 33955 ft | 461 kts | 330° |
| 2026-05-07 11:40 | 52.92523 | 40.10286 | 33952 ft | 461 kts | 330° |
| 2026-05-07 11:40 | 52.98201 | 40.05217 | 33954 ft | 461 kts | 330° |
| 2026-05-07 11:41 | 53.03820 | 40.00210 | 33953 ft | 461 kts | 330° |
| 2026-05-07 11:41 | 53.09465 | 39.95148 | 33954 ft | 461 kts | 330° |
| 2026-05-07 11:42 | 53.15103 | 39.90089 | 33952 ft | 460 kts | 330° |
| 2026-05-07 11:42 | 53.20734 | 39.85011 | 33950 ft | 460 kts | 330° |
| 2026-05-07 11:43 | 53.26369 | 39.79922 | 33951 ft | 460 kts | 330° |
| 2026-05-07 11:43 | 53.32000 | 39.74817 | 33951 ft | 460 kts | 330° |
| 2026-05-07 11:43 | 53.34813 | 39.72261 | 33784 ft | 462 kts | 330° |
| 2026-05-07 11:44 | 53.37596 | 39.69729 | 33318 ft | 445 kts | 330° |
| 2026-05-07 11:44 | 53.40274 | 39.67290 | 32853 ft | 433 kts | 330° |
| 2026-05-07 11:44 | 53.42899 | 39.64895 | 32463 ft | 427 kts | 330° |
| 2026-05-07 11:44 | 53.45500 | 39.62518 | 32087 ft | 424 kts | 330° |
| 2026-05-07 11:45 | 53.48088 | 39.60149 | 31714 ft | 421 kts | 330° |
| 2026-05-07 11:45 | 53.50652 | 39.57799 | 31358 ft | 419 kts | 330° |
| 2026-05-07 11:45 | 53.53200 | 39.55462 | 31009 ft | 416 kts | 330° |
| 2026-05-07 11:45 | 53.55732 | 39.53135 | 30653 ft | 414 kts | 330° |
| 2026-05-07 11:46 | 53.58252 | 39.50817 | 30315 ft | 411 kts | 330° |
| 2026-05-07 11:46 | 53.60750 | 39.48515 | 29963 ft | 408 kts | 330° |
| 2026-05-07 11:46 | 53.63205 | 39.46249 | 29597 ft | 406 kts | 330° |
| 2026-05-07 11:46 | 53.65706 | 39.43940 | 29249 ft | 404 kts | 330° |
| 2026-05-07 11:47 | 53.68163 | 39.41666 | 28911 ft | 402 kts | 330° |
| 2026-05-07 11:47 | 53.70576 | 39.39432 | 28581 ft | 400 kts | 330° |
| 2026-05-07 11:47 | 53.73013 | 39.37171 | 28249 ft | 398 kts | 330° |
| 2026-05-07 11:47 | 53.75442 | 39.34915 | 27958 ft | 396 kts | 330° |
| 2026-05-07 11:48 | 53.77855 | 39.32670 | 27687 ft | 395 kts | 329° |
| 2026-05-07 11:48 | 53.80259 | 39.30431 | 27416 ft | 394 kts | 329° |
| 2026-05-07 11:48 | 53.82659 | 39.28190 | 27171 ft | 393 kts | 329° |
| 2026-05-07 11:48 | 53.85102 | 39.25910 | 26924 ft | 408 kts | 329° |
| 2026-05-07 11:49 | 53.87579 | 39.23597 | 26927 ft | 406 kts | 329° |
| 2026-05-07 11:49 | 53.90052 | 39.21283 | 26921 ft | 406 kts | 329° |
| 2026-05-07 11:49 | 53.92516 | 39.18969 | 26928 ft | 405 kts | 329° |
| 2026-05-07 11:49 | 53.94988 | 39.16646 | 26920 ft | 405 kts | 329° |
| 2026-05-07 11:50 | 53.97432 | 39.14352 | 26750 ft | 394 kts | 329° |
| 2026-05-07 11:50 | 53.99802 | 39.12121 | 26571 ft | 388 kts | 329° |
| 2026-05-07 11:50 | 54.02170 | 39.09888 | 26437 ft | 388 kts | 329° |
| 2026-05-07 11:50 | 54.04505 | 39.07684 | 26327 ft | 388 kts | 329° |
| 2026-05-07 11:51 | 54.06862 | 39.05457 | 26227 ft | 387 kts | 329° |
| 2026-05-07 11:51 | 54.09217 | 39.03229 | 26133 ft | 387 kts | 329° |
| 2026-05-07 11:51 | 54.11604 | 39.00969 | 26029 ft | 387 kts | 329° |
| 2026-05-07 11:51 | 54.13918 | 38.98772 | 25930 ft | 386 kts | 329° |
| 2026-05-07 11:52 | 54.16267 | 38.96537 | 25915 ft | 386 kts | 329° |
| 2026-05-07 11:52 | 54.18648 | 38.94274 | 25911 ft | 386 kts | 329° |
| 2026-05-07 11:52 | 54.20994 | 38.92040 | 25911 ft | 386 kts | 329° |
| 2026-05-07 11:52 | 54.23312 | 38.89840 | 25909 ft | 386 kts | 329° |
| 2026-05-07 11:53 | 54.25696 | 38.87702 | 25912 ft | 387 kts | 331° |
| 2026-05-07 11:53 | 54.28123 | 38.85714 | 25913 ft | 387 kts | 333° |
| 2026-05-07 11:53 | 54.30556 | 38.83716 | 25908 ft | 387 kts | 332° |
| 2026-05-07 11:53 | 54.32955 | 38.81641 | 25905 ft | 387 kts | 330° |
| 2026-05-07 11:54 | 54.35358 | 38.79543 | 25906 ft | 387 kts | 331° |
| 2026-05-07 11:54 | 54.37773 | 38.77488 | 25909 ft | 387 kts | 332° |
| 2026-05-07 11:54 | 54.40183 | 38.75452 | 25905 ft | 387 kts | 331° |
| 2026-05-07 11:54 | 54.42598 | 38.73381 | 25905 ft | 387 kts | 331° |
| 2026-05-07 11:55 | 54.45009 | 38.71296 | 25902 ft | 387 kts | 331° |
| 2026-05-07 11:55 | 54.47420 | 38.69225 | 25901 ft | 387 kts | 331° |
| 2026-05-07 11:55 | 54.49827 | 38.67161 | 25901 ft | 387 kts | 331° |
| 2026-05-07 11:55 | 54.52236 | 38.65082 | 25903 ft | 387 kts | 331° |
| 2026-05-07 11:56 | 54.54642 | 38.62998 | 25897 ft | 387 kts | 331° |
| 2026-05-07 11:56 | 54.57056 | 38.60912 | 25897 ft | 387 kts | 331° |
| 2026-05-07 11:56 | 54.59462 | 38.58830 | 25894 ft | 387 kts | 331° |
| 2026-05-07 11:56 | 54.61866 | 38.56747 | 25895 ft | 387 kts | 331° |
| 2026-05-07 11:57 | 54.64270 | 38.54660 | 25896 ft | 387 kts | 331° |
| 2026-05-07 11:57 | 54.66673 | 38.52566 | 25895 ft | 387 kts | 331° |
| 2026-05-07 11:57 | 54.69075 | 38.50473 | 25899 ft | 387 kts | 331° |
| 2026-05-07 11:57 | 54.71480 | 38.48378 | 25897 ft | 387 kts | 331° |
| 2026-05-07 11:58 | 54.73877 | 38.46287 | 25899 ft | 386 kts | 331° |
| 2026-05-07 11:58 | 54.76280 | 38.44202 | 25891 ft | 386 kts | 331° |
| 2026-05-07 11:58 | 54.78690 | 38.42120 | 25794 ft | 386 kts | 331° |
| 2026-05-07 11:58 | 54.81062 | 38.40063 | 25632 ft | 385 kts | 331° |
| 2026-05-07 11:59 | 54.83450 | 38.37977 | 25460 ft | 384 kts | 330° |
| 2026-05-07 11:59 | 54.85662 | 38.35447 | 25266 ft | 379 kts | 317° |
| 2026-05-07 11:59 | 54.87594 | 38.32357 | 25107 ft | 377 kts | 313° |
| 2026-05-07 11:59 | 54.89373 | 38.29029 | 24928 ft | 376 kts | 310° |
| 2026-05-07 12:00 | 54.91143 | 38.25683 | 24770 ft | 375 kts | 311° |
| 2026-05-07 12:00 | 54.92978 | 38.22474 | 24610 ft | 374 kts | 313° |
| 2026-05-07 12:00 | 54.94832 | 38.19290 | 24456 ft | 374 kts | 313° |
| 2026-05-07 12:00 | 54.96639 | 38.16049 | 24265 ft | 372 kts | 311° |
| 2026-05-07 12:01 | 54.98422 | 38.12788 | 24116 ft | 371 kts | 311° |
| 2026-05-07 12:01 | 55.00218 | 38.09551 | 23954 ft | 371 kts | 312° |
| 2026-05-07 12:01 | 55.02020 | 38.06338 | 23785 ft | 371 kts | 312° |
| 2026-05-07 12:01 | 55.03813 | 38.03115 | 23520 ft | 370 kts | 311° |
| 2026-05-07 12:02 | 55.05590 | 37.99894 | 23169 ft | 367 kts | 311° |
| 2026-05-07 12:02 | 55.07351 | 37.96704 | 22824 ft | 365 kts | 311° |
| 2026-05-07 12:02 | 55.09110 | 37.93526 | 22387 ft | 362 kts | 311° |
| 2026-05-07 12:02 | 55.10857 | 37.90367 | 21935 ft | 360 kts | 311° |
| 2026-05-07 12:03 | 55.12577 | 37.87247 | 21495 ft | 357 kts | 311° |
| 2026-05-07 12:03 | 55.14299 | 37.84115 | 21037 ft | 355 kts | 311° |
| 2026-05-07 12:03 | 55.16005 | 37.81021 | 20619 ft | 349 kts | 311° |
| 2026-05-07 12:03 | 55.17768 | 37.78196 | 20189 ft | 340 kts | 318° |
| 2026-05-07 12:04 | 55.19670 | 37.75822 | 19883 ft | 330 kts | 323° |
| 2026-05-07 12:04 | 55.21578 | 37.73646 | 19874 ft | 325 kts | 322° |
| 2026-05-07 12:04 | 55.23403 | 37.71328 | 19880 ft | 325 kts | 319° |
| 2026-05-07 12:04 | 55.25201 | 37.68917 | 19880 ft | 325 kts | 319° |
| 2026-05-07 12:05 | 55.27031 | 37.66566 | 19884 ft | 326 kts | 321° |
| 2026-05-07 12:05 | 55.28872 | 37.64262 | 19837 ft | 328 kts | 321° |
| 2026-05-07 12:05 | 55.30714 | 37.61917 | 19662 ft | 326 kts | 320° |
| 2026-05-07 12:05 | 55.32533 | 37.59564 | 19381 ft | 325 kts | 320° |
| 2026-05-07 12:06 | 55.34348 | 37.57222 | 19097 ft | 323 kts | 320° |
| 2026-05-07 12:06 | 55.36159 | 37.54900 | 18807 ft | 321 kts | 320° |
| 2026-05-07 12:06 | 55.37961 | 37.52584 | 18524 ft | 320 kts | 320° |
| 2026-05-07 12:06 | 55.39752 | 37.50277 | 18239 ft | 318 kts | 320° |
| 2026-05-07 12:07 | 55.41538 | 37.47970 | 17928 ft | 317 kts | 320° |
| 2026-05-07 12:07 | 55.43313 | 37.45676 | 17640 ft | 316 kts | 320° |
| 2026-05-07 12:07 | 55.45080 | 37.43392 | 17377 ft | 315 kts | 319° |
| 2026-05-07 12:07 | 55.46842 | 37.41112 | 17113 ft | 314 kts | 319° |
| 2026-05-07 12:08 | 55.48597 | 37.38837 | 16893 ft | 312 kts | 319° |
| 2026-05-07 12:08 | 55.50392 | 37.36858 | 16873 ft | 317 kts | 332° |
| 2026-05-07 12:08 | 55.52543 | 37.35810 | 16864 ft | 325 kts | 347° |
| 2026-05-07 12:08 | 55.54808 | 37.35522 | 16890 ft | 329 kts | 355° |
| 2026-05-07 12:09 | 55.57080 | 37.35645 | 16851 ft | 331 kts | 358° |
| 2026-05-07 12:09 | 55.59383 | 37.35762 | 16572 ft | 329 kts | 355° |
| 2026-05-07 12:09 | 55.61660 | 37.35694 | 16268 ft | 327 kts | 353° |
| 2026-05-07 12:09 | 55.63937 | 37.35601 | 15939 ft | 327 kts | 354° |
| 2026-05-07 12:10 | 55.66209 | 37.35587 | 15608 ft | 327 kts | 355° |
| 2026-05-07 12:10 | 55.68480 | 37.35597 | 15281 ft | 325 kts | 355° |
| 2026-05-07 12:10 | 55.70737 | 37.35574 | 14938 ft | 325 kts | 354° |
| 2026-05-07 12:10 | 55.73000 | 37.35522 | 14465 ft | 325 kts | 354° |
| 2026-05-07 12:11 | 55.75259 | 37.35346 | 13984 ft | 323 kts | 351° |
| 2026-05-07 12:11 | 55.77494 | 37.35044 | 13490 ft | 322 kts | 350° |
| 2026-05-07 12:11 | 55.79722 | 37.34766 | 12952 ft | 321 kts | 351° |
| 2026-05-07 12:11 | 55.81942 | 37.34552 | 12437 ft | 319 kts | 352° |
| 2026-05-07 12:12 | 55.83411 | 37.34411 | 12062 ft | 318 kts | 351° |
| 2026-05-07 12:12 | 55.85624 | 37.34168 | 11478 ft | 318 kts | 351° |
| 2026-05-07 12:12 | 55.87830 | 37.33909 | 10916 ft | 317 kts | 351° |
| 2026-05-07 12:12 | 55.90017 | 37.33665 | 10363 ft | 315 kts | 351° |
| 2026-05-07 12:13 | 55.92203 | 37.33431 | 9875 ft | 313 kts | 351° |
| 2026-05-07 12:13 | 55.94325 | 37.33208 | 9848 ft | 300 kts | 351° |
| 2026-05-07 12:13 | 55.96402 | 37.32963 | 9847 ft | 299 kts | 348° |
| 2026-05-07 12:13 | 55.98387 | 37.32102 | 9746 ft | 291 kts | 330° |
| 2026-05-07 12:14 | 56.00145 | 37.30422 | 9524 ft | 284 kts | 322° |
| 2026-05-07 12:14 | 56.01786 | 37.28471 | 9214 ft | 283 kts | 319° |
| 2026-05-07 12:14 | 56.03421 | 37.26509 | 8916 ft | 283 kts | 321° |
| 2026-05-07 12:14 | 56.05063 | 37.24669 | 8666 ft | 281 kts | 322° |
| 2026-05-07 12:15 | 56.06741 | 37.22800 | 8427 ft | 279 kts | 322° |
| 2026-05-07 12:15 | 56.08354 | 37.20966 | 8208 ft | 278 kts | 322° |
| 2026-05-07 12:15 | 56.09977 | 37.19082 | 7992 ft | 277 kts | 319° |
| 2026-05-07 12:15 | 56.11437 | 37.16923 | 7989 ft | 270 kts | 310° |
| 2026-05-07 12:16 | 56.12716 | 37.14480 | 7987 ft | 269 kts | 307° |
| 2026-05-07 12:16 | 56.13994 | 37.12027 | 7987 ft | 269 kts | 309° |
| 2026-05-07 12:16 | 56.15328 | 37.09673 | 7994 ft | 269 kts | 310° |
| 2026-05-07 12:16 | 56.16721 | 37.07399 | 7994 ft | 274 kts | 318° |
| 2026-05-07 12:17 | 56.18468 | 37.05932 | 7986 ft | 284 kts | 339° |
| 2026-05-07 12:17 | 56.20461 | 37.05622 | 7990 ft | 293 kts | 359° |
| 2026-05-07 12:17 | 56.22499 | 37.05989 | 8000 ft | 294 kts | 0° |
| 2026-05-07 12:17 | 56.24516 | 37.06677 | 7991 ft | 302 kts | 18° |
| 2026-05-07 12:18 | 56.26297 | 37.08722 | 7989 ft | 310 kts | 40° |
| 2026-05-07 12:18 | 56.27598 | 37.11819 | 7989 ft | 312 kts | 62° |
| 2026-05-07 12:18 | 56.28234 | 37.15538 | 7989 ft | 312 kts | 84° |
| 2026-05-07 12:18 | 56.28143 | 37.19397 | 7987 ft | 308 kts | 105° |
| 2026-05-07 12:19 | 56.27406 | 37.22971 | 7996 ft | 304 kts | 120° |
| 2026-05-07 12:19 | 56.26333 | 37.26209 | 7838 ft | 302 kts | 133° |
| 2026-05-07 12:19 | 56.24828 | 37.28736 | 7575 ft | 291 kts | 150° |
| 2026-05-07 12:19 | 56.23071 | 37.30340 | 7326 ft | 276 kts | 165° |
| 2026-05-07 12:20 | 56.21266 | 37.31341 | 7080 ft | 267 kts | 168° |
| 2026-05-07 12:20 | 56.19625 | 37.32826 | 6988 ft | 264 kts | 148° |
| 2026-05-07 12:20 | 56.18335 | 37.35193 | 6799 ft | 269 kts | 129° |
| 2026-05-07 12:20 | 56.17532 | 37.38228 | 6609 ft | 272 kts | 109° |
| 2026-05-07 12:21 | 56.17315 | 37.41597 | 6442 ft | 275 kts | 88° |
| 2026-05-07 12:21 | 56.17613 | 37.44981 | 6224 ft | 274 kts | 77° |
| 2026-05-07 12:21 | 56.18136 | 37.48270 | 5866 ft | 275 kts | 72° |
| 2026-05-07 12:21 | 56.18697 | 37.51558 | 5535 ft | 276 kts | 74° |
| 2026-05-07 12:22 | 56.19104 | 37.54878 | 5194 ft | 276 kts | 86° |
| 2026-05-07 12:22 | 56.18909 | 37.58302 | 5001 ft | 267 kts | 107° |
| 2026-05-07 12:22 | 56.18217 | 37.61225 | 4958 ft | 254 kts | 125° |
| 2026-05-07 12:22 | 56.17128 | 37.63696 | 4666 ft | 252 kts | 138° |
| 2026-05-07 12:23 | 56.15887 | 37.65879 | 4394 ft | 249 kts | 141° |
| 2026-05-07 12:23 | 56.14638 | 37.68052 | 4121 ft | 250 kts | 139° |
| 2026-05-07 12:23 | 56.13435 | 37.70285 | 3994 ft | 245 kts | 138° |
| 2026-05-07 12:23 | 56.12275 | 37.72446 | 3989 ft | 235 kts | 139° |
| 2026-05-07 12:24 | 56.11179 | 37.74458 | 3986 ft | 218 kts | 140° |
| 2026-05-07 12:24 | 56.10024 | 37.76128 | 3962 ft | 211 kts | 156° |
| 2026-05-07 12:24 | 56.08645 | 37.76879 | 3714 ft | 205 kts | 180° |
| 2026-05-07 12:24 | 56.07248 | 37.76686 | 3458 ft | 199 kts | 198° |
| 2026-05-07 12:25 | 56.05941 | 37.75955 | 3229 ft | 196 kts | 204° |
| 2026-05-07 12:25 | 56.04644 | 37.75156 | 2990 ft | 199 kts | 203° |
| 2026-05-07 12:25 | 56.03343 | 37.74407 | 2735 ft | 192 kts | 204° |
| 2026-05-07 12:25 | 56.02257 | 37.73209 | 2487 ft | 176 kts | 230° |
| 2026-05-07 12:26 | 56.01633 | 37.71576 | 2518 ft | 170 kts | 245° |
| 2026-05-07 12:26 | 56.01290 | 37.69631 | 2491 ft | 156 kts | 256° |
| 2026-05-07 12:26 | 56.01049 | 37.67762 | 2542 ft | 153 kts | 257° |
| 2026-05-07 12:26 | 56.00795 | 37.65954 | 2502 ft | 153 kts | 254° |
| 2026-05-07 12:27 | 56.00516 | 37.64221 | 2503 ft | 155 kts | 255° |
| 2026-05-07 12:27 | 56.00266 | 37.62445 | 2526 ft | 133 kts | 256° |
| 2026-05-07 12:27 | 56.00033 | 37.60922 | 2327 ft | 119 kts | 254° |
| 2026-05-07 12:27 | 55.99841 | 37.59616 | 2331 ft | 106 kts | 255° |
| 2026-05-07 12:28 | 55.99637 | 37.58366 | 2326 ft | 111 kts | 254° |
| 2026-05-07 12:28 | 55.99455 | 37.57036 | 2064 ft | 107 kts | 254° |
| 2026-05-07 12:28 | 55.99264 | 37.55769 | 1907 ft | 104 kts | 253° |
| 2026-05-07 12:28 | 55.99073 | 37.54463 | 1767 ft | 114 kts | 256° |
| 2026-05-07 12:29 | 55.98886 | 37.53203 | 1618 ft | 111 kts | 254° |
| 2026-05-07 12:29 | 55.98685 | 37.51878 | 1457 ft | 111 kts | 255° |
| 2026-05-07 12:29 | 55.98504 | 37.50529 | 1278 ft | 111 kts | 256° |
| 2026-05-07 12:29 | 55.98308 | 37.49231 | 1163 ft | 115 kts | 255° |
| 2026-05-07 12:30 | 55.98097 | 37.47805 | 1024 ft | 119 kts | 254° |
| 2026-05-07 12:30 | 55.97869 | 37.46344 | 903 ft | 117 kts | 260° |
| 2026-05-07 12:30 | 55.97679 | 37.45064 | 756 ft | 113 kts | 257° |
| 2026-05-07 12:30 | 55.97488 | 37.43802 | 657 ft | 97 kts | 255° |
| 2026-05-07 12:31 | 55.97332 | 37.42758 | 645 ft | 74 kts | 255° |
| 2026-05-07 12:31 | 55.97219 | 37.42004 | 641 ft | 57 kts | 255° |
| 2026-05-07 12:31 | 55.97140 | 37.41481 | 645 ft | 18 kts | 255° |
| 2026-05-07 12:31 | 55.97175 | 37.41342 | 643 ft | 13 kts | 341° |
| 2026-05-07 12:32 | 55.97264 | 37.41298 | 643 ft | 16 kts | 343° |
| 2026-05-07 12:32 | 55.97380 | 37.41243 | 644 ft | 19 kts | 345° |
| 2026-05-07 12:32 | 55.97484 | 37.41194 | 643 ft | 4 kts | 347° |
| 2026-05-07 12:32 | 55.97491 | 37.41191 | 643 ft | 0 kts | 346° |
| 2026-05-07 12:34 | 55.97512 | 37.41181 | 643 ft | 8 kts | 345° |
| 2026-05-07 12:34 | 55.97579 | 37.41150 | 643 ft | 9 kts | 338° |
| 2026-05-07 12:34 | 55.97607 | 37.41048 | 643 ft | 11 kts | 256° |
| 2026-05-07 12:35 | 55.97595 | 37.40914 | 643 ft | 9 kts | 298° |
| 2026-05-07 12:35 | 55.97600 | 37.40767 | 645 ft | 16 kts | 256° |
| 2026-05-07 12:35 | 55.97603 | 37.40627 | 643 ft | 9 kts | 338° |
| 2026-05-07 12:35 | 55.97685 | 37.40587 | 643 ft | 12 kts | 345° |
| 2026-05-07 12:36 | 55.97712 | 37.40485 | 643 ft | 11 kts | 251° |
| 2026-05-07 12:36 | 55.97703 | 37.40433 | 645 ft | 1 kts | 254° |
| 2026-05-07 12:36 | 55.97700 | 37.40414 | 644 ft | 0 kts | 255° |
| 2026-05-07 12:37 | 55.97701 | 37.40429 | 643 ft | 2 kts | 265° |
| 2026-05-07 12:38 | 55.97698 | 37.40449 | 644 ft | 2 kts | 295° |
| 2026-05-07 12:38 | 55.97689 | 37.40465 | 647 ft | 1 kts | 321° |
| 2026-05-07 12:38 | 55.97673 | 37.40476 | 646 ft | 3 kts | 345° |
| 2026-05-07 12:38 | 55.97654 | 37.40483 | 644 ft | 3 kts | 346° |
| 2026-05-07 12:39 | 55.97638 | 37.40490 | 643 ft | 0 kts | 345° |